6R7 weather

Old Harbor Airport
Old Harbor, Alaska, United States

Public forecast

Using degrees Fahrenheit for public forecast. Weather courtesy of forecast.io.

METAR (pilot weather report)

Closest report is Akhiok Airport, 34.2 nm (63.3 km) WSW. Retrieved 2019/07/21 00:56 UTC (26 minutes ago):

PAKH 210056Z AUTO 30013KT 10SM OVC075 18/14 A3015 RMK AO2 SLP210 T01830139 $

TAF (pilot weather forecast)

Forecast is more than 12 hours old.

Closest forecast is Kodiak Airport, 40.6 nm (75.2 km) NE. Retrieved 2019/07/20 00:27 UTC (1 day ago):

TAF PADQ 202325Z 2100/2124 12005KT P6SM VCSH SCT006 BKN025 FM211200 VRB03KT 5SM BR BKN005 FM212100 07005KT P6SM BKN030